Terminal Aerodrome Forecast
Issued by NWS Cleveland, OH

Home | Current Version | Previous Version | Graphics & Text | Print | Product List | Glossary On
Versions: 1 2 3 4 5 6 7 8 9 10 11 12 13 14 15 16 17 18 19 20 21 22 23 24
000
FTUS41 KCLE 150500
TAFERI
TAF
KERI 150520Z 1506/1606 02008KT 6SM BR OVC004
      TEMPO 1506/1510 2SM -RA BR OVC002
     FM151000 33014G20KT 3SM -RASNPL BR OVC006
      TEMPO 1510/1512 1SM -SN BR OVC003
     FM151200 34014G22KT 3SM -SN BR OVC006
      TEMPO 1512/1516 1SM -SN BR OVC003
     FM151600 33012G20KT P6SM VCSH OVC012
     FM152200 30014G22KT P6SM OVC025
     FM160000 28012KT P6SM BKN045
     FM160400 28007KT P6SM SCT250=

USA.gov is the U.S. government's official web portal to all federal, state and local government web resources and services.